Adams Run, South Carolina
Current Conditions -  °F | °C
As of 1:55 AM on Monday 24 Nov 2014 (Local Time) from KJZI Reporting Station
Overcast Overcast  
Wind Chill: 19°   Ceiling: 2400
Heat Index: 19°   Visibility: 9mi
Dew Point: 19°   Wind: 7mph
Humidity: 100%   Direction: 200°SSW
Pressure: 29.84"   Gusts: NA
Location:  32.72°N, 80.35°W
Report Text: KJZI 240655Z AUTO 20006KT 9SM OVC024 19/19 A2984 RMK A02 P000
Loading
Personal Weather Stations






























Interactive Weather Map New forecast layout! Learn more

10-Day Weather Forecast

Advertisements
Track Severe Weather on mobile